Time;durP1;ratioP1;P1;durP2;ratioP2;P2;SDS_P1;SDS_P2;PMS_P1;PMS_P2;Temp;Humidity;BMP_temperature;BMP_pressure;BME280_temperature;BME280_humidity;BME280_pressure;Samples;Min_cycle;Max_cycle;Signal;HPM_P1;HPM_P2
2023/04/03 01:15:22;;;;;;;;;;;;;;;;;;;;;
2023/04/03 01:21:23;;;;;;;;;;;;;;;4.40;54.44;100753.94;1075636;54;19950;31
2023/04/03 01:24:08;;;;;;;;;;;;;;;4.43;54.10;100756.41;1077951;54;19950;31
2023/04/03 01:25:11;;;;;;;;;;;;;;;4.47;53.89;100751.78;1078199;39;21202;31
2023/04/03 01:26:21;;;;;;;;;;;;;;;4.45;54.07;100759.81;1088463;54;19954;-84
2023/04/03 01:27:22;;;;;;;;;;;;;;;4.44;53.94;100758.09;1088468;54;19950;-82
2023/04/03 01:28:27;;;;;;;;;;;;;;;4.41;53.86;100763.59;1091151;39;20883;-82
2023/04/03 01:29:30;;;;;;;;;;;;;;;4.40;53.89;100756.59;1088474;54;19927;-82
2023/04/03 01:30:36;;;;;;;;;;;;;;;4.43;53.89;100753.78;1088414;54;19934;-82
2023/04/03 01:31:53;;;;;;;;;;;;;;;4.39;53.95;100761.97;1088531;54;19926;-83
2023/04/03 01:32:54;;;;;;;;;;;;;;;4.42;53.77;100765.28;1088485;54;20029;-82
2023/04/03 01:35:05;;;;;;;;;;;;;;;4.48;54.08;100764.94;1075792;54;20390;31
2023/04/03 01:36:10;;;;;;;;;;;;;;;4.50;53.91;100773.66;1088436;54;19935;-83
2023/04/03 01:37:14;;;;;;;;;;;;;;;4.50;54.07;100773.66;1088540;54;19935;-82
2023/04/03 01:38:16;;;;;;;;;;;;;;;4.54;53.91;100769.03;1088428;54;19934;-83
2023/04/03 01:39:20;;;;;;;;;;;;;;;4.56;53.95;100776.88;1088419;54;19950;-82
2023/04/03 01:41:29;;;;;;;;;;;;;;;4.57;54.07;100774.16;1087775;54;21552;-82
2023/04/03 01:42:30;;;;;;;;;;;;;;;4.59;53.76;100772.25;1088416;54;20373;-83
2023/04/03 01:43:41;;;;;;;;;;;;;;;4.59;53.80;100777.56;1088362;54;19938;-83
2023/04/03 01:44:45;;;;;;;;;;;;;;;4.62;54.06;100776.53;1088422;54;20594;-83
2023/04/03 01:45:49;;;;;;;;;;;;;;;4.69;54.33;100775.25;1088390;54;19942;-84
2023/04/03 01:46:56;;;;;;;;;;;;;;;4.70;54.58;100776.94;1088149;54;19942;-86
2023/04/03 01:47:58;;;;;;;;;;;;;;;4.67;55.31;100775.34;1088219;54;19942;-82
2023/04/03 01:49:02;;;;;;;;;;;;;;;4.64;55.74;100769.34;1088037;54;19935;-82
2023/04/03 01:50:04;;;;;;;;;;;;;;;4.61;55.75;100780.13;1088233;54;20582;-83
2023/04/03 01:51:07;;;;;;;;;;;;;;;4.58;56.25;100777.66;1088485;54;19943;-81
2023/04/03 01:52:15;;;;;;;;;;;;;;;4.54;56.51;100784.91;1088543;54;19927;-82
2023/04/03 01:53:19;;;;;;;;;;;;;;;4.56;56.60;100774.22;1088424;54;19943;-82
2023/04/03 01:54:22;;;;;;;;;;;;;;;4.60;56.49;100787.22;1088472;54;19927;-83
2023/04/03 01:55:26;;;;;;;;;;;;;;;4.58;56.67;100777.66;1088449;54;20007;-84
2023/04/03 01:57:34;;;;;;;;;;;;;;;4.54;56.61;100779.63;1088097;54;19930;-83
2023/04/03 01:58:39;;;;;;;;;;;;;;;4.51;57.06;100778.00;1088172;54;19942;-82
2023/04/03 01:59:46;;;;;;;;;;;;;;;4.55;56.84;100785.75;1088307;54;19942;-84
2023/04/03 02:00:48;;;;;;;;;;;;;;;4.59;56.80;100782.00;1088331;54;19943;-83
2023/04/03 02:02:01;;;;;;;;;;;;;;;4.59;56.70;100782.00;1088326;54;19934;-82
2023/04/03 02:03:03;;;;;;;;;;;;;;;4.57;56.77;100782.09;1088302;54;19927;-82
2023/04/03 02:04:14;;;;;;;;;;;;;;;4.60;57.00;100783.72;1093531;39;20232;-82
2023/04/03 02:05:21;;;;;;;;;;;;;;;4.58;56.59;100770.53;1094355;31;20630;-82
2023/04/03 02:06:29;;;;;;;;;;;;;;;4.61;56.74;100782.78;1091861;39;20612;-84
2023/04/03 02:07:31;;;;;;;;;;;;;;;4.53;56.96;100781.41;1088212;54;19966;-81
2023/04/03 02:08:36;;;;;;;;;;;;;;;4.47;57.13;100783.56;1088295;54;20841;-81
2023/04/03 05:47:43;;;;;;;;;;;;;;;3.01;61.29;100853.88;1088525;54;19979;-84
2023/04/03 05:48:45;;;;;;;;;;;;;;;3.03;61.19;100854.63;1088445;54;19950;-84
2023/04/03 05:49:48;;;;;;;;;;;;;;;3.02;61.46;100851.16;1088554;54;19939;-83
2023/04/03 05:51:55;;;;;;;;;;;;;;;2.97;61.17;100846.09;1088371;54;19934;-83
2023/04/03 05:52:58;;;;;;;;;;;;;;;2.96;61.51;100854.94;1088160;54;19938;-84
2023/04/03 05:54:05;;;;;;;;;;;;;;;3.00;61.40;100852.16;1089545;47;19943;-83
2023/04/03 05:55:07;;;;;;;;;;;;;;;3.04;61.54;100859.00;1097079;46;19937;-83
2023/04/03 05:56:12;;;;;;;;;;;;;;;3.02;61.29;100853.78;1088480;54;19990;-84
2023/04/03 05:57:13;;;;;;;;;;;;;;;2.97;61.61;100851.38;1088637;46;19938;-83
2023/04/03 05:58:16;;;;;;;;;;;;;;;2.97;61.40;100856.66;1091089;46;19942;-84
2023/04/03 05:59:18;;;;;;;;;;;;;;;3.06;61.58;100857.13;1088457;54;19942;-84
2023/04/03 06:00:23;;;;;;;;;;;;;;;3.08;61.59;100857.91;1088551;54;19949;-84
2023/04/03 06:01:24;;;;;;;;;;;;;;;3.12;61.38;100856.81;1088423;54;19934;-84
2023/04/03 06:03:52;;;;;;;;;;;;;;;3.08;61.74;100855.28;1095760;46;19938;-83
2023/04/03 06:04:56;;;;;;;;;;;;;;;3.11;61.75;100860.41;1091845;46;19942;-84
2023/04/03 06:06:05;;;;;;;;;;;;;;;3.15;61.37;100863.75;1096128;46;19978;-82
2023/04/03 06:07:10;;;;;;;;;;;;;;;3.12;61.58;100867.38;1101881;46;19998;-82
2023/04/03 06:10:01;;;;;;;;;;;;;;;3.20;61.68;100869.66;1088712;54;19950;-84
2023/04/03 06:11:02;;;;;;;;;;;;;;;3.08;62.17;100863.19;1088600;54;19926;-83
2023/04/03 06:12:13;;;;;;;;;;;;;;;3.02;62.45;100863.53;1089944;46;19995;-84
2023/04/03 06:14:25;;;;;;;;;;;;;;;2.93;62.86;100873.59;1087998;54;19986;-83
2023/04/03 06:15:28;;;;;;;;;;;;;;;2.99;62.61;100866.31;1088258;54;19942;-82
2023/04/03 06:16:32;;;;;;;;;;;;;;;3.02;62.57;100860.88;1088370;54;19922;-83
2023/04/03 06:17:35;;;;;;;;;;;;;;;3.11;62.28;100865.69;1088366;54;19966;-83
2023/04/03 06:18:45;;;;;;;;;;;;;;;3.06;62.89;100868.56;1088390;54;19927;-83
2023/04/03 06:22:08;;;;;;;;;;;;;;;3.10;62.79;100869.28;1087797;54;19945;-83
2023/04/03 06:23:12;;;;;;;;;;;;;;;3.16;62.78;100870.75;1089742;46;19926;-83
2023/04/03 06:25:22;;;;;;;;;;;;;;;3.30;62.23;100868.25;1081673;54;19942;31
2023/04/03 06:26:37;;;;;;;;;;;;;;;3.23;62.50;100873.00;1088531;54;19947;-83
2023/04/03 06:27:41;;;;;;;;;;;;;;;3.22;62.82;100866.00;1088486;54;19979;-81
2023/04/03 06:31:01;;;;;;;;;;;;;;;3.24;62.79;100871.22;1088413;54;19923;-83
2023/04/03 06:32:03;;;;;;;;;;;;;;;3.25;62.66;100873.78;1094481;39;20538;-83
2023/04/03 06:33:06;;;;;;;;;;;;;;;3.33;62.73;100875.16;1088343;54;19935;-83
2023/04/03 06:34:11;;;;;;;;;;;;;;;3.32;62.58;100865.53;1088461;54;19931;-83
2023/04/03 06:35:15;;;;;;;;;;;;;;;3.33;63.02;100862.81;1088442;54;19923;-84
2023/04/03 06:36:19;;;;;;;;;;;;;;;3.38;62.87;100868.72;1088308;54;19942;-83
2023/04/03 06:37:28;;;;;;;;;;;;;;;3.41;62.80;100878.28;1088404;54;19927;-83
2023/04/03 06:38:32;;;;;;;;;;;;;;;3.48;62.67;100874.41;1091903;39;20183;-82
2023/04/03 06:39:34;;;;;;;;;;;;;;;3.54;62.75;100874.09;1088378;54;19930;-84
2023/04/03 06:40:38;;;;;;;;;;;;;;;3.61;62.55;100873.75;1091813;46;19943;-83
2023/04/03 06:41:41;;;;;;;;;;;;;;;3.69;62.34;100871.56;1088301;54;19934;-84
2023/04/03 06:42:44;;;;;;;;;;;;;;;3.77;62.19;100873.81;1088316;54;19950;-84
2023/04/03 06:43:49;;;;;;;;;;;;;;;3.81;62.03;100876.22;1088328;54;19942;-82
2023/04/03 06:47:08;;;;;;;;;;;;;;;3.61;62.57;100879.03;1088270;54;19927;-83
2023/04/03 06:48:16;;;;;;;;;;;;;;;3.59;62.71;100882.63;1088297;54;19927;-84
2023/04/03 06:49:17;;;;;;;;;;;;;;;3.55;62.84;100870.50;1088378;54;19979;-83
2023/04/03 06:50:23;;;;;;;;;;;;;;;3.51;63.12;100878.66;1089489;47;20358;-82
2023/04/03 06:51:26;;;;;;;;;;;;;;;3.53;63.08;100872.38;1088357;54;20335;-84
2023/04/03 06:52:33;;;;;;;;;;;;;;;3.53;63.26;100882.94;1089146;47;19938;-83
2023/04/03 06:53:37;;;;;;;;;;;;;;;3.64;63.19;100887.66;1089059;47;19950;-82
2023/04/03 06:54:39;;;;;;;;;;;;;;;3.70;63.01;100883.84;1088336;54;19938;-82
2023/04/03 06:55:43;;;;;;;;;;;;;;;3.77;62.80;100882.63;1090017;47;19987;-83
2023/04/03 06:56:47;;;;;;;;;;;;;;;3.79;62.37;100878.06;1088991;47;19942;-83
2023/04/03 06:57:51;;;;;;;;;;;;;;;3.77;62.66;100873.81;1090245;47;19964;-84
2023/04/03 06:58:54;;;;;;;;;;;;;;;3.78;62.91;100876.38;1088491;54;19923;-83
2023/04/03 06:59:58;;;;;;;;;;;;;;;3.78;62.96;100881.66;1090223;47;19943;-84
2023/04/03 07:01:00;;;;;;;;;;;;;;;3.80;63.09;100879.78;1098880;47;19923;-83
2023/04/03 07:02:04;;;;;;;;;;;;;;;3.80;62.99;100879.78;1088521;54;19927;-83
2023/04/03 07:03:17;;;;;;;;;;;;;;;3.82;63.07;100888.50;1088430;54;20020;-83
2023/04/03 07:05:28;;;;;;;;;;;;;;;4.02;62.77;100886.59;1088478;54;20061;-85
2023/04/03 07:06:53;;;;;;;;;;;;;;;4.10;62.52;100887.03;1088875;46;19979;-84
2023/04/03 07:08:00;;;;;;;;;;;;;;;4.13;62.38;100886.00;1091434;46;19947;-83
2023/04/03 07:09:02;;;;;;;;;;;;;;;4.19;62.53;100885.69;1088774;54;19927;-83
2023/04/03 07:10:15;;;;;;;;;;;;;;;4.20;62.21;100890.91;1088770;54;19934;-83
2023/04/03 07:11:16;;;;;;;;;;;;;;;4.31;62.23;100894.75;1088703;54;19941;-82
2023/04/03 07:12:35;;;;;;;;;;;;;;;4.34;62.05;100882.22;1088882;54;19927;-84
2023/04/03 07:13:39;;;;;;;;;;;;;;;4.33;61.98;100893.72;1097111;46;19927;-83
2023/04/03 07:14:52;;;;;;;;;;;;;;;4.31;62.32;100878.88;1089503;46;19926;-82
2023/04/03 07:16:07;;;;;;;;;;;;;;;4.28;61.89;100892.28;1097586;46;19934;-83
2023/04/03 07:17:11;;;;;;;;;;;;;;;4.28;62.22;100894.91;1095185;46;19935;-83
2023/04/03 07:19:55;;;;;;;;;;;;;;;4.14;62.44;100900.97;1088940;54;19927;-82
2023/04/03 07:24:33;;;;;;;;;;;;;;;4.39;62.33;100895.19;1089147;54;19950;-83
2023/04/03 07:25:37;;;;;;;;;;;;;;;4.47;61.95;100900.91;1090116;46;19942;-83
2023/04/03 07:30:07;;;;;;;;;;;;;;;4.63;61.31;100903.56;1088309;54;19942;-83
2023/04/03 07:31:13;;;;;;;;;;;;;;;4.63;61.34;100897.44;1097924;46;19942;-84
2023/04/03 07:32:17;;;;;;;;;;;;;;;4.61;61.15;100912.56;1090804;46;19982;-84
2023/04/03 07:33:21;;;;;;;;;;;;;;;4.63;61.35;100908.03;1088922;46;19955;-85
2023/04/03 07:34:28;;;;;;;;;;;;;;;4.66;61.01;100895.47;1088839;54;19934;-81
2023/04/03 07:39:19;;;;;;;;;;;;;;;4.65;61.10;100909.66;1081831;54;19947;-84
2023/04/03 07:40:26;;;;;;;;;;;;;;;4.75;60.66;100909.97;1089970;46;19939;-83
2023/04/03 07:45:11;;;;;;;;;;;;;;;4.69;60.59;100905.03;1080706;54;19957;31
2023/04/03 07:46:20;;;;;;;;;;;;;;;4.78;60.15;100903.66;1090957;46;19983;-84
2023/04/03 07:47:28;;;;;;;;;;;;;;;4.80;60.19;100913.25;1088398;54;19942;-84
2023/04/03 07:48:36;;;;;;;;;;;;;;;4.74;60.52;100915.38;1088765;46;19927;-83
2023/04/03 07:49:45;;;;;;;;;;;;;;;4.76;60.39;100916.97;1095906;46;19945;-83
2023/04/03 07:51:01;;;;;;;;;;;;;;;4.79;59.84;100921.25;1088689;54;19942;-83
2023/04/03 07:52:15;;;;;;;;;;;;;;;;;;;;;
2023/04/03 07:55:55;;;;;;;;;;;;;;;5.00;59.81;100913.91;1088800;39;20408;-84
2023/04/03 07:57:04;;;;;;;;;;;;;;;5.04;59.66;100920.72;1088615;54;19943;-84
2023/04/03 07:58:06;;;;;;;;;;;;;;;5.05;59.18;100911.84;1088745;46;19950;-80
2023/04/03 07:59:15;;;;;;;;;;;;;;;4.99;59.14;100912.19;1098674;39;20431;-83
2023/04/03 08:00:17;;;;;;;;;;;;;;;4.95;59.67;100921.25;1088647;54;19934;-82
2023/04/03 08:01:27;;;;;;;;;;;;;;;4.94;59.42;100914.22;1092125;46;19994;-82
2023/04/03 10:33:38;;;;;;;;;;;;;;;6.60;48.91;100883.97;1087766;54;19942;-83
2023/04/03 10:34:57;;;;;;;;;;;;;;;6.51;49.01;100887.22;1088360;54;19927;-82
2023/04/03 10:36:23;;;;;;;;;;;;;;;6.54;49.06;100887.00;1088175;54;19983;-81
2023/04/03 10:37:36;;;;;;;;;;;;;;;6.68;49.09;100879.03;1093082;46;19945;-80
2023/04/03 10:38:50;;;;;;;;;;;;;;;6.79;49.25;100885.44;1088118;54;19943;-82
2023/04/03 10:40:31;;;;;;;;;;;;;;;6.87;48.73;100875.16;1088161;54;19938;-81
2023/04/03 10:43:42;;;;;;;;;;;;;;;6.74;48.70;100876.91;1088288;54;19919;-82
2023/04/03 10:45:15;;;;;;;;;;;;;;;6.77;48.26;100876.72;1088241;54;19973;-82
2023/04/03 10:46:30;;;;;;;;;;;;;;;6.76;47.57;100877.66;1087921;54;19943;-82
2023/04/03 10:50:58;;;;;;;;;;;;;;;6.90;47.33;100882.06;1088139;54;19931;-83
2023/04/03 10:55:43;;;;;;;;;;;;;;;6.87;46.10;100873.34;1087715;54;19931;-82
2023/04/03 11:57:00;;;;;;;;;;;;;;;7.02;42.99;100842.25;1087384;54;19954;-80
2023/04/03 11:58:16;;;;;;;;;;;;;;;6.99;42.93;100846.91;1088400;54;19927;-82
2023/04/03 11:59:27;;;;;;;;;;;;;;;6.99;43.12;100836.28;1088371;54;19942;-81
2023/04/03 12:08:50;;;;;;;;;;;;;;;7.29;41.50;100833.34;1087912;54;19950;-83
2023/04/03 12:29:09;;;;;;;;;;;;;;;7.26;42.47;100814.97;1087983;54;20041;-81
2023/04/03 12:32:08;;;;;;;;;;;;;;;7.44;42.46;100812.84;1087950;54;19993;-81
2023/04/03 12:33:24;;;;;;;;;;;;;;;7.46;41.47;100810.91;1087935;54;21486;-81
2023/04/03 12:56:33;;;;;;;;;;;;;;;7.38;40.72;100799.09;1088629;46;19938;-80
2023/04/03 13:03:43;;;;;;;;;;;;;;;7.25;41.22;100791.13;1089463;54;19934;-80
2023/04/03 13:04:57;;;;;;;;;;;;;;;7.25;41.53;100786.66;1089454;54;19942;-83
2023/04/03 13:06:05;;;;;;;;;;;;;;;7.38;41.41;100791.13;1089628;54;19930;-82
2023/04/03 13:07:18;;;;;;;;;;;;;;;7.41;40.90;100785.59;1089737;54;19942;-83
2023/04/03 13:11:28;;;;;;;;;;;;;;;7.27;41.19;100792.72;1089966;54;19926;-82
2023/04/03 13:16:04;;;;;;;;;;;;;;;7.49;41.18;100788.56;1089716;54;19954;-78
2023/04/03 13:32:22;;;;;;;;;;;;;;;7.51;39.50;100791.16;1088448;54;19946;-80
2023/04/03 13:33:24;;;;;;;;;;;;;;;7.47;39.88;100795.78;1088999;54;20745;-81
2023/04/03 13:34:50;;;;;;;;;;;;;;;;;;;;;
2023/04/03 13:37:57;;;;;;;;;;;;;;;7.44;39.68;100793.38;1089175;54;19939;-79
2023/04/03 13:40:32;;;;;;;;;;;;;;;7.40;39.53;100789.22;1089262;54;19974;-80
2023/04/03 13:43:35;;;;;;;;;;;;;;;7.62;39.33;100791.22;1089493;54;19990;-80
2023/04/03 13:45:27;;;;;;;;;;;;;;;7.76;37.91;100784.94;1089231;54;20011;-79
2023/04/03 14:13:31;;;;;;;;;;;;;;;8.16;35.91;100771.44;1087425;54;19950;-81
2023/04/03 14:18:17;;;;;;;;;;;;;;;;;;;;;
2023/04/03 14:22:48;;;;;;;;;;;;;;;7.52;37.13;100777.72;1087463;54;19938;-79
2023/04/03 14:23:52;;;;;;;;;;;;;;;7.59;37.26;100767.50;1088328;46;19949;-80
2023/04/03 14:25:10;;;;;;;;;;;;;;;7.69;36.89;100765.03;1088123;46;19943;-80
2023/04/03 14:26:37;;;;;;;;;;;;;;;7.86;36.30;100756.69;1087833;54;19945;-80
2023/04/03 14:27:45;;;;;;;;;;;;;;;8.00;36.20;100755.69;1088031;54;19943;-81
2023/04/03 14:28:59;;;;;;;;;;;;;;;8.07;36.13;100770.28;1088030;54;19923;-80
2023/04/03 14:30:08;;;;;;;;;;;;;;;8.05;35.81;100750.91;1090787;46;19959;-80
2023/04/03 14:31:17;;;;;;;;;;;;;;;8.19;35.17;100749.03;1087781;54;19942;-80
2023/04/03 14:33:52;;;;;;;;;;;;;;;8.25;34.59;100741.44;1087903;54;19946;-80
2023/04/03 14:35:01;;;;;;;;;;;;;;;8.22;35.05;100751.50;1087993;54;19938;-80
2023/04/03 14:36:08;;;;;;;;;;;;;;;8.23;34.59;100750.53;1087942;54;19958;-81
2023/04/03 14:37:10;;;;;;;;;;;;;;;8.28;34.80;100748.38;1090249;46;19943;-80
2023/04/03 14:38:26;;;;;;;;;;;;;;;8.27;34.18;100742.19;1088674;46;19934;-78
2023/04/03 14:39:30;;;;;;;;;;;;;;;8.25;34.62;100756.59;1087938;54;19942;-79
2023/04/03 14:40:35;;;;;;;;;;;;;;;8.34;34.58;100747.06;1088290;46;19942;-79
2023/04/03 14:41:39;;;;;;;;;;;;;;;8.25;34.00;100746.78;1088183;46;19946;-78
2023/04/03 14:42:47;;;;;;;;;;;;;;;8.30;34.27;100746.44;1088130;47;19938;-81
2023/04/03 14:43:53;;;;;;;;;;;;;;;8.36;34.03;100745.16;1088386;46;19990;-80
2023/04/03 14:44:57;;;;;;;;;;;;;;;8.32;33.89;100751.66;1089747;46;19943;-80
2023/04/03 14:46:00;;;;;;;;;;;;;;;8.28;34.27;100743.03;1088059;54;19942;-80
2023/04/03 14:47:04;;;;;;;;;;;;;;;8.19;33.71;100757.03;1088589;46;19943;-79
2023/04/03 14:48:15;;;;;;;;;;;;;;;8.06;34.14;100751.75;1087963;54;19943;-79
2023/04/03 14:49:21;;;;;;;;;;;;;;;8.05;33.83;100742.91;1089946;46;19933;-79
2023/04/03 14:50:27;;;;;;;;;;;;;;;8.15;33.92;100743.09;1088131;54;19938;-79
2023/04/03 14:51:28;;;;;;;;;;;;;;;8.18;33.97;100745.53;1092503;46;19942;-79
2023/04/03 14:52:34;;;;;;;;;;;;;;;8.15;34.03;100739.59;1090729;46;19962;-80
2023/04/03 16:31:19;;;;;;;;;;;;;;;7.86;35.92;100748.72;1087422;54;19961;-80
2023/04/03 16:40:56;;;;;;;;;;;;;;;;;;;;;
2023/04/03 16:53:20;;;;;;;;;;;;;;;7.40;36.04;100754.63;1087326;54;19944;-79
2023/04/03 18:39:54;;;;;;;;;;;;;;;6.16;36.56;100786.72;805343;54;52201;-84
2023/04/03 18:45:57;;;;;;;;;;;;;;;6.05;37.04;100782.97;1088427;54;19931;-81
2023/04/03 18:46:59;;;;;;;;;;;;;;;6.04;37.56;100793.69;1088590;54;19923;-83
2023/04/03 18:48:33;;;;;;;;;;;;;;;;;;;;;
2023/04/03 20:12:11;;;;;;;;;;;;;;;4.66;42.48;100837.19;1087760;54;19966;-84
2023/04/03 20:13:14;;;;;;;;;;;;;;;4.63;42.35;100832.06;1088419;54;19935;-84
2023/04/03 20:14:24;;;;;;;;;;;;;;;4.61;42.84;100835.75;1088509;54;19958;-83
2023/04/03 20:15:28;;;;;;;;;;;;;;;4.62;42.87;100840.94;1088395;54;19935;-82
2023/04/03 20:16:41;;;;;;;;;;;;;;;4.69;42.79;100836.16;1088494;54;19926;-84
2023/04/03 20:17:42;;;;;;;;;;;;;;;4.63;42.78;100836.53;1088486;54;19999;-84
2023/04/03 20:18:51;;;;;;;;;;;;;;;4.57;43.00;100832.41;1088263;54;20701;-84
2023/04/03 20:20:00;;;;;;;;;;;;;;;4.57;43.06;100843.03;1088383;54;19923;-82
2023/04/03 20:21:07;;;;;;;;;;;;;;;4.54;43.13;100835.22;1088535;54;20034;-83
2023/04/03 20:22:09;;;;;;;;;;;;;;;4.51;43.15;100844.22;1088421;54;19943;-84
2023/04/03 20:23:25;;;;;;;;;;;;;;;4.50;43.39;100836.34;1088409;54;19950;-84
2023/04/03 20:26:33;;;;;;;;;;;;;;;;;;;;;
2023/04/03 20:29:18;;;;;;;;;;;;;;;4.39;43.35;100833.47;1088022;54;19975;-82
2023/04/03 20:30:26;;;;;;;;;;;;;;;4.36;43.47;100835.34;1088429;54;19957;-83
2023/04/03 20:31:30;;;;;;;;;;;;;;;4.31;43.56;100842.66;1088355;54;19931;-83
2023/04/03 20:32:32;;;;;;;;;;;;;;;4.30;43.82;100834.81;1088344;54;19943;-83
2023/04/03 20:34:46;;;;;;;;;;;;;;;4.24;43.82;100838.66;1087982;54;19955;-83
2023/04/03 20:35:50;;;;;;;;;;;;;;;4.16;43.78;100840.88;1088441;54;19999;-84
2023/04/03 20:36:54;;;;;;;;;;;;;;;4.25;43.66;100828.94;1088348;54;19933;-83
2023/04/03 20:37:55;;;;;;;;;;;;;;;4.20;44.08;100839.78;1088481;54;19938;-84
2023/04/03 20:39:01;;;;;;;;;;;;;;;4.17;44.06;100832.00;1088395;54;19934;-82
2023/04/03 20:40:11;;;;;;;;;;;;;;;4.16;43.79;100833.75;1088419;54;19962;-82
2023/04/03 20:41:24;;;;;;;;;;;;;;;4.10;44.16;100833.28;1088321;54;19927;-82
2023/04/03 20:42:26;;;;;;;;;;;;;;;4.09;44.24;100826.28;1088354;54;19966;-84
2023/04/03 20:43:37;;;;;;;;;;;;;;;4.05;44.05;100834.38;1088392;54;19954;-83
2023/04/03 20:44:44;;;;;;;;;;;;;;;4.13;44.10;100841.91;1088286;54;19950;-84
2023/04/03 20:45:48;;;;;;;;;;;;;;;4.07;44.17;100828.97;1088413;54;19942;-83
2023/04/03 20:46:58;;;;;;;;;;;;;;;3.98;44.49;100846.22;1088365;54;19934;-82
2023/04/03 20:49:34;;;;;;;;;;;;;;;4.01;44.29;100847.84;1088088;54;19935;-83
2023/04/03 20:50:39;;;;;;;;;;;;;;;3.96;44.27;100841.97;1088338;39;20586;-81
2023/04/03 20:51:49;;;;;;;;;;;;;;;4.01;44.25;100845.19;1088119;54;19926;-81
2023/04/03 20:53:00;;;;;;;;;;;;;;;3.90;44.64;100851.91;1088357;54;19939;-82
2023/04/03 20:54:04;;;;;;;;;;;;;;;3.97;44.27;100841.88;1088403;54;20611;-83
2023/04/03 20:55:14;;;;;;;;;;;;;;;3.96;44.25;100847.25;1088242;54;19927;-81
2023/04/03 20:57:19;;;;;;;;;;;;;;;3.96;44.44;100856.03;1088136;54;19938;-83
2023/04/03 20:58:22;;;;;;;;;;;;;;;3.85;44.55;100853.97;1091052;39;20592;-83
2023/04/03 20:59:26;;;;;;;;;;;;;;;3.73;45.08;100842.22;1088002;54;19938;-80
2023/04/03 21:00:31;;;;;;;;;;;;;;;3.74;44.87;100848.38;1088003;54;19942;-83
2023/04/03 21:01:34;;;;;;;;;;;;;;;3.77;44.80;100847.34;1088039;47;20275;-82
2023/04/03 21:02:37;;;;;;;;;;;;;;;3.78;44.80;100849.91;1087930;54;19947;-82
2023/04/03 21:03:42;;;;;;;;;;;;;;;3.74;44.85;100848.38;1087918;54;19939;-81
2023/04/03 21:04:45;;;;;;;;;;;;;;;3.74;44.73;100843.09;1088017;54;19949;-82
2023/04/03 21:05:50;;;;;;;;;;;;;;;3.80;44.57;100844.56;1088789;47;19939;-82
2023/04/03 21:07:10;;;;;;;;;;;;;;;3.79;44.57;100856.06;1087988;54;19942;-84
2023/04/03 21:08:28;;;;;;;;;;;;;;;3.83;44.50;100841.72;1090527;39;20531;-82
2023/04/03 21:09:46;;;;;;;;;;;;;;;3.77;44.01;100839.44;1087810;54;19935;-81
2023/04/03 21:11:05;;;;;;;;;;;;;;;3.77;44.51;100847.34;1088168;47;19966;-82
2023/04/03 21:12:23;;;;;;;;;;;;;;;3.81;44.06;100839.19;1087797;54;19946;-81
2023/04/03 21:13:42;;;;;;;;;;;;;;;3.81;44.06;100841.00;1088045;54;19938;-81
2023/04/03 21:14:58;;;;;;;;;;;;;;;3.68;44.57;100843.44;1087981;54;19942;-83
2023/04/03 21:16:02;;;;;;;;;;;;;;;3.70;44.54;100845.06;1088003;54;19945;-83
2023/04/03 21:17:03;;;;;;;;;;;;;;;3.64;44.55;100837.41;1087988;54;19943;-81
2023/04/03 21:18:23;;;;;;;;;;;;;;;3.63;44.35;100840.16;1088143;54;19938;-83
2023/04/03 21:19:27;;;;;;;;;;;;;;;3.57;44.51;100860.72;1088187;54;19965;-83
2023/04/03 21:20:30;;;;;;;;;;;;;;;3.57;44.50;100847.50;1088236;54;20605;-82
2023/04/03 21:21:35;;;;;;;;;;;;;;;3.61;44.40;100853.47;1088032;54;19954;-83
2023/04/03 21:22:42;;;;;;;;;;;;;;;3.55;44.54;100845.84;1088068;54;19927;-82
2023/04/03 21:23:44;;;;;;;;;;;;;;;3.54;44.65;100839.72;1088152;54;20220;-82
2023/04/03 21:24:47;;;;;;;;;;;;;;;3.65;44.54;100843.59;1089930;39;20354;-82
2023/04/03 21:25:49;;;;;;;;;;;;;;;3.62;44.47;100843.72;1088049;54;19966;-82
2023/04/03 21:26:53;;;;;;;;;;;;;;;3.57;44.64;100847.50;1087935;54;19943;-82
2023/04/03 21:27:54;;;;;;;;;;;;;;;3.51;45.06;100845.16;1088024;54;19984;-82
2023/04/03 21:28:59;;;;;;;;;;;;;;;3.43;45.11;100842.03;1088517;31;20660;-81
2023/04/03 21:30:05;;;;;;;;;;;;;;;3.47;44.86;100851.53;1087968;54;19946;-82
2023/04/03 21:31:06;;;;;;;;;;;;;;;3.42;45.02;100848.25;1088037;54;19949;-81
2023/04/03 21:32:11;;;;;;;;;;;;;;;3.37;45.39;100835.28;1087986;54;19950;-82
2023/04/03 21:33:12;;;;;;;;;;;;;;;3.34;45.45;100837.22;1087934;54;19958;-81
2023/04/03 21:34:20;;;;;;;;;;;;;;;3.34;45.42;100834.59;1087961;54;19951;-81
2023/04/03 21:35:21;;;;;;;;;;;;;;;3.36;45.40;100833.56;1087961;54;19950;-81
2023/04/03 21:36:25;;;;;;;;;;;;;;;3.34;45.28;100845.16;1087967;54;19950;-81
2023/04/03 21:37:26;;;;;;;;;;;;;;;3.35;45.37;100841.59;1098271;39;20175;-81
2023/04/03 21:38:31;;;;;;;;;;;;;;;3.38;45.48;100830.88;1088079;54;19985;-81
2023/04/03 21:39:35;;;;;;;;;;;;;;;3.51;44.97;100844.31;1088336;47;19942;-82
2023/04/03 21:40:36;;;;;;;;;;;;;;;3.41;45.23;100841.25;1088075;54;19950;-81
2023/04/03 21:41:41;;;;;;;;;;;;;;;3.35;45.36;100849.53;1088005;54;19938;-82
2023/04/03 21:42:42;;;;;;;;;;;;;;;3.27;45.44;100839.31;1090103;47;19966;-83
2023/04/03 21:43:47;;;;;;;;;;;;;;;3.25;45.51;100836.78;1088562;47;19960;-81
2023/04/03 21:44:50;;;;;;;;;;;;;;;3.21;45.63;100840.50;1087992;54;19950;-81
2023/04/03 21:45:52;;;;;;;;;;;;;;;3.25;45.62;100846.50;1090698;47;20006;-81
2023/04/03 21:46:57;;;;;;;;;;;;;;;3.30;45.57;100843.63;1088184;54;19950;-82
2023/04/03 21:47:58;;;;;;;;;;;;;;;3.28;45.48;100841.03;1088608;47;19963;-82
2023/04/03 21:49:02;;;;;;;;;;;;;;;3.34;45.47;100839.88;1087982;54;19951;-82
2023/04/03 21:50:06;;;;;;;;;;;;;;;3.22;45.72;100841.38;1087953;54;19946;-82
2023/04/03 21:51:10;;;;;;;;;;;;;;;3.24;45.84;100837.72;1088095;54;19939;-81
2023/04/03 21:52:11;;;;;;;;;;;;;;;3.22;45.86;100844.00;1088449;39;20543;-82
2023/04/03 21:53:15;;;;;;;;;;;;;;;3.22;45.96;100836.91;1088082;54;20341;-81
2023/04/03 21:54:16;;;;;;;;;;;;;;;3.21;45.91;100835.22;1088202;47;19927;-81
2023/04/03 21:55:20;;;;;;;;;;;;;;;3.15;45.63;100838.16;1087972;54;19950;-81
2023/04/03 21:56:23;;;;;;;;;;;;;;;3.20;45.72;100836.16;1087998;54;19938;-81
2023/04/03 21:57:26;;;;;;;;;;;;;;;3.11;45.79;100844.56;1088015;54;19953;-81
2023/04/03 21:58:29;;;;;;;;;;;;;;;3.05;46.33;100843.09;1087995;54;19934;-81
2023/04/03 21:59:33;;;;;;;;;;;;;;;3.13;46.00;100847.97;1088045;54;19935;-81
2023/04/03 22:00:34;;;;;;;;;;;;;;;3.03;46.06;100842.28;1087991;54;19970;-81
2023/04/03 22:01:38;;;;;;;;;;;;;;;3.02;46.19;100845.88;1088337;54;19949;-82
2023/04/03 22:02:39;;;;;;;;;;;;;;;3.07;46.11;100841.19;1088428;54;19942;-82
2023/04/03 22:03:43;;;;;;;;;;;;;;;3.07;46.13;100848.28;1088315;54;19943;-81
2023/04/03 22:04:46;;;;;;;;;;;;;;;3.03;46.16;100841.41;1088367;54;19949;-82
2023/04/03 22:05:53;;;;;;;;;;;;;;;3.06;45.82;100836.00;1091391;46;19943;-80
2023/04/03 22:06:56;;;;;;;;;;;;;;;3.06;46.24;100851.84;1088047;54;19950;-81
2023/04/03 22:07:59;;;;;;;;;;;;;;;3.06;46.05;100836.00;1088026;54;19942;-81
2023/04/03 22:09:03;;;;;;;;;;;;;;;2.96;46.48;100841.75;1088219;54;19946;-81
2023/04/03 22:10:05;;;;;;;;;;;;;;;2.94;46.15;100833.03;1088223;54;19943;-82
2023/04/03 22:11:09;;;;;;;;;;;;;;;2.91;46.14;100835.84;1088272;54;19927;-82
2023/04/03 22:12:11;;;;;;;;;;;;;;;2.93;46.31;100828.69;1088424;54;19947;-83
2023/04/03 22:13:14;;;;;;;;;;;;;;;2.89;46.20;100834.19;1088366;54;19987;-82
2023/04/03 22:14:19;;;;;;;;;;;;;;;3.01;45.87;100833.59;1091298;46;19943;-82
2023/04/03 22:15:21;;;;;;;;;;;;;;;3.00;46.03;100844.25;1088251;54;19934;-82
2023/04/03 22:16:25;;;;;;;;;;;;;;;2.93;46.47;100841.88;1088479;54;19950;-81
2023/04/03 22:17:29;;;;;;;;;;;;;;;2.89;46.06;100840.34;1088357;54;19943;-82
2023/04/03 22:18:34;;;;;;;;;;;;;;;2.87;46.34;100842.19;1088410;54;19981;-81
2023/04/03 22:19:35;;;;;;;;;;;;;;;2.82;46.50;100841.59;1089250;46;19938;-81
2023/04/03 22:20:39;;;;;;;;;;;;;;;2.79;46.66;100839.09;1088150;54;19946;-82
2023/04/03 22:21:42;;;;;;;;;;;;;;;2.79;46.79;100845.19;1090455;46;19923;-81
2023/04/03 22:22:47;;;;;;;;;;;;;;;2.73;46.91;100844.69;1088310;54;19950;-84
2023/04/03 22:23:48;;;;;;;;;;;;;;;2.66;47.25;100844.09;1088220;54;19943;-81